Time;durP1;ratioP1;P1;durP2;ratioP2;P2;SDS_P1;SDS_P2;PMS_P1;PMS_P2;Temp;Humidity;BMP_temperature;BMP_pressure;BME280_temperature;BME280_humidity;BME280_pressure;Samples;Min_cycle;Max_cycle;Signal;HPM_P1;HPM_P2
2021/06/24 00:01:08;;;;;;;;;14.00;11.75;;;;;15.62;68.48;102023.19;4960608;28;45313;-72
2021/06/24 00:03:35;;;;;;;;;14.50;13.50;;;;;15.63;68.05;102022.25;4961843;28;45352;-73
2021/06/24 00:06:03;;;;;;;;;14.25;11.75;;;;;15.68;68.34;102030.03;4954842;28;46605;-74
2021/06/24 00:08:29;;;;;;;;;19.00;14.50;;;;;15.69;67.88;102028.25;4953613;28;45668;-74
2021/06/24 00:10:57;;;;;;;;;14.50;13.25;;;;;15.70;67.99;102041.47;4959343;28;45475;-74
2021/06/24 00:13:23;;;;;;;;;15.00;11.25;;;;;15.74;67.86;102036.94;4963805;28;45278;-74
2021/06/24 00:15:49;;;;;;;;;14.75;13.25;;;;;15.71;68.01;102037.91;4960488;28;46233;-74
2021/06/24 00:18:15;;;;;;;;;14.75;13.75;;;;;15.71;68.05;102029.94;4956433;28;48134;-74
2021/06/24 00:20:42;;;;;;;;;11.50;11.50;;;;;15.70;67.64;102025.59;4963066;28;45289;-74
2021/06/24 00:23:09;;;;;;;;;14.50;10.75;;;;;15.67;67.93;102020.38;4962706;28;45320;-74
2021/06/24 00:25:34;;;;;;;;;7.50;5.00;;;;;15.68;68.02;102016.78;4963442;28;45813;-75
2021/06/24 00:28:01;;;;;;;;;12.50;12.50;;;;;15.69;68.07;102010.59;4947823;28;47283;-74
2021/06/24 00:30:26;;;;;;;;;13.25;10.75;;;;;15.68;67.68;102010.66;4963459;28;45367;-73
2021/06/24 00:32:52;;;;;;;;;13.50;12.00;;;;;15.63;67.72;102002.84;4963899;28;45230;-73
2021/06/24 00:35:18;;;;;;;;;17.00;15.50;;;;;15.59;67.58;102009.16;4963344;28;45410;-73
2021/06/24 00:37:44;;;;;;;;;13.00;11.25;;;;;15.58;68.05;102010.09;4955425;28;48074;-74
2021/06/24 00:40:11;;;;;;;;;12.25;10.50;;;;;15.59;68.27;102009.16;4957515;28;45370;-73
2021/06/24 00:42:38;;;;;;;;;12.75;11.50;;;;;15.58;67.95;102007.44;4963715;28;45337;-73
2021/06/24 00:45:06;;;;;;;;;13.25;12.00;;;;;15.62;68.17;102011.72;4963476;28;45282;-73
2021/06/24 00:47:32;;;;;;;;;18.00;15.25;;;;;15.58;68.03;102005.63;4949872;28;46650;-73
2021/06/24 00:49:57;;;;;;;;;19.00;13.50;;;;;15.56;67.98;102001.31;4963080;28;45221;-73
2021/06/24 00:52:23;;;;;;;;;14.00;14.00;;;;;15.59;68.19;102001.22;4957290;28;45338;-73
2021/06/24 00:54:48;;;;;;;;;13.50;12.00;;;;;15.62;68.22;102001.13;4955238;28;45414;-73
2021/06/24 00:57:14;;;;;;;;;14.25;13.25;;;;;15.65;67.71;101987.75;4961713;28;45621;-73
2021/06/24 00:59:39;;;;;;;;;12.50;11.25;;;;;15.68;67.98;102000.88;4963357;28;45428;-73
2021/06/24 01:02:05;;;;;;;;;13.75;11.50;;;;;15.67;67.78;101990.34;4961697;28;45322;-73
2021/06/24 01:04:35;;;;;;;;;14.00;12.25;;;;;15.66;67.83;101996.56;4961945;28;45867;-72
2021/06/24 01:07:02;;;;;;;;;14.50;10.75;;;;;15.62;67.96;101985.22;4962186;28;45458;-72
2021/06/24 01:09:28;;;;;;;;;18.50;13.75;;;;;15.61;67.80;101991.41;4963247;28;45572;-74
2021/06/24 01:11:56;;;;;;;;;13.75;12.75;;;;;15.62;68.09;101991.38;4950534;28;45302;-70
2021/06/24 01:14:22;;;;;;;;;14.25;12.25;;;;;15.63;68.13;101989.59;4953271;28;45290;-70
2021/06/24 01:16:51;;;;;;;;;20.50;18.25;;;;;15.63;68.02;101987.81;4947604;28;46272;-70
2021/06/24 01:19:17;;;;;;;;;15.75;14.25;;;;;15.62;68.05;101985.22;4963208;28;45713;-70
2021/06/24 01:21:43;;;;;;;;;11.25;11.25;;;;;15.64;68.19;101978.94;4958807;28;45660;-70
2021/06/24 01:24:09;;;;;;;;;13.00;12.50;;;;;15.65;67.78;101974.53;4963142;28;45440;-70
2021/06/24 01:26:37;;;;;;;;;13.75;12.00;;;;;15.67;68.01;101985.91;4961937;28;45361;-70
2021/06/24 01:29:03;;;;;;;;;14.00;13.25;;;;;15.66;68.32;101989.47;4962894;28;45404;-70
2021/06/24 01:31:28;;;;;;;;;12.50;12.50;;;;;15.65;67.79;101982.47;4952871;28;45423;-70
2021/06/24 01:33:53;;;;;;;;;13.00;11.00;;;;;15.63;67.86;101981.66;4963012;28;45384;-70
2021/06/24 01:36:19;;;;;;;;;14.50;13.25;;;;;15.59;67.92;101975.59;4953226;28;45353;-70
2021/06/24 01:38:45;;;;;;;;;18.50;14.50;;;;;15.55;68.15;101976.63;4960573;28;45437;-70
2021/06/24 01:41:12;;;;;;;;;16.00;15.50;;;;;15.52;68.03;101964.34;4961576;28;45429;-70
2021/06/24 01:43:37;;;;;;;;;12.00;12.00;;;;;15.50;68.01;101971.47;4962683;28;45455;-70
2021/06/24 01:46:03;;;;;;;;;13.50;13.00;;;;;15.46;68.16;101964.53;4951948;28;47239;-70
2021/06/24 01:48:29;;;;;;;;;19.50;14.25;;;;;15.46;68.07;101966.34;4958035;28;45199;-69
2021/06/24 01:50:57;;;;;;;;;18.75;16.75;;;;;15.45;68.32;101959.31;4977465;28;45499;-70
2021/06/24 01:53:23;;;;;;;;;13.50;12.75;;;;;15.41;68.50;101951.44;4952042;28;45278;-70
2021/06/24 01:55:49;;;;;;;;;14.50;14.50;;;;;15.44;68.63;101958.44;4954800;28;45596;-70
2021/06/24 01:58:21;;;;;;;;;13.25;11.25;;;;;15.46;68.17;101958.38;4961305;28;45210;-70
2021/06/24 02:00:46;;;;;;;;;13.50;13.50;;;;;15.44;67.88;101950.47;4959518;28;45340;-70
2021/06/24 02:03:13;;;;;;;;;17.00;14.50;;;;;15.41;67.94;101951.44;4952190;28;45396;-70
2021/06/24 02:05:39;;;;;;;;;15.25;13.25;;;;;15.42;68.05;101952.31;4960721;28;48231;-70
2021/06/24 02:08:10;;;;;;;;;15.50;12.50;;;;;15.41;68.30;101948.78;4958466;28;45531;-71
2021/06/24 02:10:35;;;;;;;;;14.75;14.50;;;;;15.45;68.34;101952.22;4962332;28;45320;-72
2021/06/24 02:13:01;;;;;;;;;17.25;13.50;;;;;15.44;68.09;101947.81;4960870;28;45351;-73
2021/06/24 02:15:26;;;;;;;;;15.25;14.00;;;;;15.42;68.24;101944.38;4951245;28;45403;-73
2021/06/24 02:17:52;;;;;;;;;14.50;11.75;;;;;15.43;68.23;101938.16;4953893;28;45609;-74
2021/06/24 02:20:17;;;;;;;;;15.50;15.50;;;;;15.42;68.04;101931.13;4960547;28;45342;-74
2021/06/24 02:22:44;;;;;;;;;17.25;16.00;;;;;15.42;68.35;101931.13;4962005;28;45529;-74
2021/06/24 02:25:10;;;;;;;;;19.50;14.75;;;;;15.45;68.50;101936.31;4961994;28;45415;-71
2021/06/24 02:27:35;;;;;;;;;18.50;16.75;;;;;15.47;68.17;101938.91;4956290;28;45799;-71
2021/06/24 02:30:00;;;;;;;;;15.25;12.00;;;;;15.48;68.03;101936.19;4949501;28;45630;-71
2021/06/24 02:32:26;;;;;;;;;15.50;14.25;;;;;15.49;68.19;101937.06;4959857;28;46174;-72
2021/06/24 02:34:52;;;;;;;;;12.50;12.50;;;;;15.50;68.32;101931.72;4960329;28;45644;-74
2021/06/24 02:37:18;;;;;;;;;14.25;9.50;;;;;15.54;67.98;101935.13;4960924;28;45669;-74
2021/06/24 02:39:44;;;;;;;;;14.25;10.50;;;;;15.53;68.18;101928.13;4961882;28;45553;-74
2021/06/24 02:42:09;;;;;;;;;13.75;12.50;;;;;15.59;67.99;101934.97;4951205;28;45274;-73
2021/06/24 02:44:35;;;;;;;;;14.25;14.25;;;;;15.57;67.83;101935.03;4961686;28;45419;-73
2021/06/24 02:47:00;;;;;;;;;14.75;12.25;;;;;15.54;67.48;101935.13;4960988;28;45498;-73
2021/06/24 02:49:25;;;;;;;;;11.00;10.25;;;;;15.53;67.57;101936.91;4961784;28;45273;-73
2021/06/24 02:51:51;;;;;;;;;10.75;10.00;;;;;15.47;67.60;101929.19;4960797;28;45313;-73
2021/06/24 02:54:17;;;;;;;;;14.00;10.25;;;;;15.44;67.52;101936.34;4960020;28;45470;-73
2021/06/24 02:56:43;;;;;;;;;16.50;13.00;;;;;15.40;67.46;101930.31;4960780;28;45662;-71
2021/06/24 02:59:09;;;;;;;;;13.75;11.00;;;;;15.34;67.71;101935.81;4943259;28;45377;-71
2021/06/24 03:01:36;;;;;;;;;9.25;9.25;;;;;15.28;67.58;101924.50;4943197;28;45609;-73
2021/06/24 03:04:03;;;;;;;;;14.25;13.75;;;;;15.29;67.60;101933.31;4959873;28;46459;-73
2021/06/24 03:06:28;;;;;;;;;13.50;12.00;;;;;15.25;67.88;101923.75;4951780;28;45603;-73
2021/06/24 03:08:54;;;;;;;;;12.75;12.75;;;;;15.25;67.86;101919.34;4958779;28;45492;-73
2021/06/24 03:11:19;;;;;;;;;12.50;10.75;;;;;15.27;67.79;101928.09;4961140;28;45488;-71
2021/06/24 03:13:48;;;;;;;;;11.50;10.50;;;;;15.31;67.74;101928.81;4958258;28;46336;-72
2021/06/24 03:16:14;;;;;;;;;13.75;11.50;;;;;15.30;67.85;101933.28;4953193;28;45653;-72
2021/06/24 03:18:39;;;;;;;;;12.50;11.25;;;;;15.32;68.14;101927.06;4960679;28;46453;-73
2021/06/24 03:21:05;;;;;;;;;20.25;15.50;;;;;15.34;67.58;101923.44;4950614;28;46920;-71
2021/06/24 03:23:31;;;;;;;;;16.50;13.00;;;;;15.32;67.62;101916.47;4944650;28;45440;-73
2021/06/24 03:25:56;;;;;;;;;15.50;14.75;;;;;15.32;67.33;101927.06;4960684;28;45159;-71
2021/06/24 03:28:22;;;;;;;;;14.25;14.25;;;;;15.34;67.85;101931.38;4952714;28;45540;-71
2021/06/24 03:30:47;;;;;;;;;17.25;12.75;;;;;15.33;67.79;101927.03;4955054;28;47330;-72
2021/06/24 03:33:13;;;;;;;;;14.50;12.75;;;;;15.36;67.66;101931.34;4954094;28;45468;-71
2021/06/24 03:35:38;;;;;;;;;13.25;11.75;;;;;15.37;67.94;101927.75;4960749;28;45416;-72
2021/06/24 03:38:04;;;;;;;;;16.25;11.50;;;;;15.39;67.75;101931.22;4959004;28;45494;-73
2021/06/24 03:40:29;;;;;;;;;13.50;11.75;;;;;15.37;67.59;101925.13;4960718;28;45316;-74
2021/06/24 03:42:55;;;;;;;;;15.75;11.75;;;;;15.33;67.83;101920.84;4957559;28;45516;-74
2021/06/24 03:45:20;;;;;;;;;16.75;13.00;;;;;15.34;67.53;101930.50;4958540;28;45310;-72
2021/06/24 03:47:46;;;;;;;;;13.75;10.50;;;;;15.32;67.45;101929.69;4960616;28;45533;-72
2021/06/24 03:50:13;;;;;;;;;13.50;11.75;;;;;15.28;67.84;101921.84;4960286;28;45550;-73
2021/06/24 03:52:39;;;;;;;;;15.00;11.75;;;;;15.28;67.42;101918.38;4960405;28;45700;-73
2021/06/24 03:55:06;;;;;;;;;12.25;11.00;;;;;15.22;67.43;101916.78;4957882;28;45818;-74
2021/06/24 03:57:32;;;;;;;;;16.00;13.50;;;;;15.21;67.63;101922.13;4959763;28;46543;-73
2021/06/24 03:59:58;;;;;;;;;14.25;12.00;;;;;15.18;68.21;101916.03;4960753;28;45594;-73
2021/06/24 04:02:23;;;;;;;;;9.00;9.00;;;;;15.18;68.08;101923.09;4954007;28;45430;-73
2021/06/24 04:04:49;;;;;;;;;11.00;9.50;;;;;15.19;67.74;101919.53;4954001;28;45274;-74
2021/06/24 04:07:14;;;;;;;;;12.00;10.50;;;;;15.23;67.78;101928.25;4948994;28;45388;-73
2021/06/24 04:09:40;;;;;;;;;10.00;10.00;;;;;15.21;67.86;101922.97;4960528;28;45475;-74
2021/06/24 04:12:06;;;;;;;;;11.00;10.00;;;;;15.23;68.00;101930.91;4959483;28;45387;-74
2021/06/24 04:14:31;;;;;;;;;14.25;10.50;;;;;15.21;67.81;101922.97;4949941;28;45363;-74
2021/06/24 04:16:57;;;;;;;;;11.75;11.75;;;;;15.21;67.62;101922.13;4957776;28;45232;-75
2021/06/24 04:19:22;;;;;;;;;13.25;13.25;;;;;15.15;67.73;101924.06;4960533;28;45475;-72
2021/06/24 04:21:48;;;;;;;;;13.25;12.25;;;;;15.15;67.57;101928.50;4959219;28;45445;-74
2021/06/24 04:24:13;;;;;;;;;11.25;10.75;;;;;15.15;67.72;101928.50;4958430;28;45277;-72
2021/06/24 04:26:39;;;;;;;;;14.75;12.50;;;;;15.13;67.86;101925.03;4959978;28;45312;-72
2021/06/24 04:29:04;;;;;;;;;14.50;11.00;;;;;15.11;67.78;101926.88;4960195;28;45349;-73
2021/06/24 04:31:30;;;;;;;;;13.50;13.25;;;;;15.13;67.69;101932.97;4960275;28;45225;-71
2021/06/24 04:33:56;;;;;;;;;13.50;13.25;;;;;15.12;67.79;101931.25;4954425;28;45180;-71
2021/06/24 04:36:22;;;;;;;;;12.75;11.00;;;;;15.14;67.64;101938.22;4953045;28;46210;-71
2021/06/24 04:38:47;;;;;;;;;13.25;12.25;;;;;15.13;67.70;101935.63;4957268;28;45358;-71
2021/06/24 04:41:13;;;;;;;;;15.25;13.25;;;;;15.14;67.76;101943.50;4958797;28;48047;-70
2021/06/24 04:43:38;;;;;;;;;15.75;11.25;;;;;15.14;67.66;101947.94;4956599;28;45218;-70
2021/06/24 04:46:04;;;;;;;;;13.00;13.00;;;;;15.13;67.63;101951.53;4950689;28;45279;-71
2021/06/24 04:48:29;;;;;;;;;11.00;11.00;;;;;15.14;67.42;101953.22;4960191;28;45500;-71
2021/06/24 04:50:54;;;;;;;;;12.75;10.00;;;;;15.10;67.56;101941.88;4960223;28;45353;-71
2021/06/24 04:53:20;;;;;;;;;13.50;11.25;;;;;15.15;67.32;101955.84;4963458;28;45374;-71
2021/06/24 04:55:45;;;;;;;;;11.75;11.75;;;;;15.15;67.50;101949.69;4962963;28;45618;-73
2021/06/24 04:58:11;;;;;;;;;9.50;8.25;;;;;15.15;67.08;101955.84;4956093;28;45422;-72
2021/06/24 05:00:37;;;;;;;;;12.25;10.50;;;;;15.13;67.14;101951.53;4960621;28;45856;-72
2021/06/24 05:03:04;;;;;;;;;16.25;13.25;;;;;15.10;67.33;101941.88;4952312;28;45416;-71
2021/06/24 05:05:30;;;;;;;;;14.00;12.75;;;;;15.10;67.23;101951.59;4960190;28;46556;-71
2021/06/24 05:07:55;;;;;;;;;12.25;11.00;;;;;15.11;67.09;101953.34;4960395;28;45345;-71
2021/06/24 05:10:21;;;;;;;;;14.25;13.25;;;;;15.13;67.09;101951.53;4963173;28;45982;-72
2021/06/24 05:12:47;;;;;;;;;13.50;13.50;;;;;15.16;67.18;101962.03;4962736;28;45376;-72
2021/06/24 05:15:14;;;;;;;;;13.25;12.00;;;;;15.14;67.21;101953.22;4962658;28;45293;-72
2021/06/24 05:17:39;;;;;;;;;14.75;13.25;;;;;15.10;67.26;101955.13;4948117;28;46535;-71
2021/06/24 05:20:10;;;;;;;;;12.75;10.75;;;;;15.09;67.44;101950.75;4962833;28;46199;-72
2021/06/24 05:22:36;;;;;;;;;14.50;11.50;;;;;15.06;67.34;101950.84;4959265;28;45655;-70
2021/06/24 05:25:03;;;;;;;;;9.75;9.75;;;;;15.06;67.33;101957.00;4957074;28;45346;-70
2021/06/24 05:27:29;;;;;;;;;10.75;10.75;;;;;15.06;67.32;101956.16;4955637;28;45953;-70
2021/06/24 05:29:54;;;;;;;;;11.75;11.75;;;;;15.05;67.42;101950.00;4951799;28;46052;-70
2021/06/24 05:32:19;;;;;;;;;14.00;13.00;;;;;15.04;67.36;101952.66;4959400;28;45353;-70
2021/06/24 05:34:45;;;;;;;;;12.50;10.50;;;;;15.01;67.32;101952.78;4954912;28;45373;-70
2021/06/24 05:37:10;;;;;;;;;10.00;9.50;;;;;15.01;67.54;101947.50;4961152;28;45595;-70
2021/06/24 05:39:36;;;;;;;;;10.75;10.50;;;;;15.01;67.63;101947.50;4961013;28;45593;-70
2021/06/24 05:42:01;;;;;;;;;12.00;9.50;;;;;15.03;68.07;101940.38;4962014;28;45317;-70
2021/06/24 05:44:27;;;;;;;;;11.50;11.25;;;;;15.03;67.41;101935.94;4963010;28;45272;-70
2021/06/24 05:46:54;;;;;;;;;11.25;11.25;;;;;15.04;67.76;101945.59;4960831;28;45412;-70
2021/06/24 05:49:20;;;;;;;;;12.00;12.00;;;;;14.99;67.39;101944.88;4961779;28;45960;-70
2021/06/24 05:51:45;;;;;;;;;13.00;11.25;;;;;15.00;67.77;101948.41;4961570;28;45226;-71
2021/06/24 05:54:11;;;;;;;;;14.25;12.00;;;;;15.01;67.39;101952.78;4962860;28;45329;-71
2021/06/24 05:56:36;;;;;;;;;11.25;11.25;;;;;14.99;67.49;101944.03;4960960;28;45339;-70
2021/06/24 05:59:03;;;;;;;;;12.00;10.50;;;;;14.98;67.61;101953.75;4960490;28;46268;-70
2021/06/24 06:01:29;;;;;;;;;12.50;10.75;;;;;14.96;67.52;101960.88;4957733;28;45432;-71
2021/06/24 06:03:54;;;;;;;;;15.00;10.25;;;;;14.95;67.70;101961.78;4961889;28;45334;-69
2021/06/24 06:06:20;;;;;;;;;14.50;11.00;;;;;14.92;67.51;101961.88;4953227;28;47585;-70
2021/06/24 06:08:46;;;;;;;;;12.75;12.00;;;;;14.90;67.50;101961.06;4952517;28;45458;-70
2021/06/24 06:11:12;;;;;;;;;13.50;11.25;;;;;14.90;67.84;101958.41;4962104;28;45306;-69
2021/06/24 06:13:38;;;;;;;;;15.25;11.50;;;;;14.91;68.32;101963.69;4961791;28;45238;-72
2021/06/24 06:16:03;;;;;;;;;13.00;10.50;;;;;14.91;67.66;101962.81;4960074;28;45480;-73
2021/06/24 06:18:29;;;;;;;;;13.00;11.75;;;;;14.88;67.92;101963.78;4957186;28;46663;-73
2021/06/24 06:20:55;;;;;;;;;11.75;11.50;;;;;14.89;67.79;101969.94;4952966;28;45395;-73
2021/06/24 06:23:23;;;;;;;;;13.75;12.25;;;;;14.88;67.87;101973.47;4955831;28;45457;-72
2021/06/24 06:25:49;;;;;;;;;11.00;11.00;;;;;14.87;68.27;101969.97;4951613;28;47679;-72
2021/06/24 06:28:17;;;;;;;;;10.25;10.25;;;;;14.95;68.15;101969.72;4943363;28;46417;-73
2021/06/24 06:30:43;;;;;;;;;13.50;10.50;;;;;14.95;67.72;101975.88;4958741;28;45513;-73
2021/06/24 06:33:09;;;;;;;;;13.75;12.00;;;;;14.94;67.61;101976.78;4961694;28;45410;-73
2021/06/24 06:35:35;;;;;;;;;12.50;12.50;;;;;14.95;67.35;101982.97;4961409;28;45445;-73
2021/06/24 06:38:01;;;;;;;;;13.00;11.75;;;;;14.94;67.48;101978.56;4961625;28;45282;-73
2021/06/24 06:40:26;;;;;;;;;9.50;9.50;;;;;14.95;67.90;101978.53;4956065;28;45522;-73
2021/06/24 06:42:52;;;;;;;;;14.25;12.50;;;;;14.98;67.97;101982.00;4953026;28;45473;-73
2021/06/24 06:45:18;;;;;;;;;14.50;10.75;;;;;14.99;67.90;101987.22;4957670;28;45200;-73
2021/06/24 06:47:45;;;;;;;;;15.75;14.50;;;;;15.00;67.69;101991.63;4952383;28;48254;-72
2021/06/24 06:50:11;;;;;;;;;13.25;12.25;;;;;15.05;67.58;101988.81;4956412;28;45476;-72
2021/06/24 06:52:37;;;;;;;;;15.00;12.75;;;;;15.06;67.38;101987.94;4955117;28;45464;-73
2021/06/24 06:55:03;;;;;;;;;15.75;14.75;;;;;15.09;67.59;101986.97;4955315;28;45603;-73
2021/06/24 06:57:28;;;;;;;;;16.50;12.75;;;;;15.09;67.54;101987.81;4951808;28;45457;-73
2021/06/24 06:59:53;;;;;;;;;12.50;12.50;;;;;15.15;67.63;101992.91;4955936;28;45336;-73
2021/06/24 07:02:19;;;;;;;;;12.50;12.00;;;;;15.17;67.34;101993.72;4957905;28;45353;-73
2021/06/24 07:04:44;;;;;;;;;16.25;12.50;;;;;15.17;67.64;101992.84;4957798;28;45436;-73
2021/06/24 07:07:10;;;;;;;;;15.50;10.75;;;;;15.16;67.44;101996.44;4943355;28;45635;-73
2021/06/24 07:09:35;;;;;;;;;12.00;11.50;;;;;15.14;67.43;101995.59;4961063;28;45368;-73
2021/06/24 07:12:00;;;;;;;;;12.25;10.75;;;;;15.14;67.16;101993.81;4949366;28;45333;-73
2021/06/24 07:14:26;;;;;;;;;14.75;14.75;;;;;15.18;67.32;101998.13;4951452;28;45447;-73
2021/06/24 07:16:51;;;;;;;;;15.00;14.00;;;;;15.18;67.16;101995.47;4946881;28;46350;-73
2021/06/24 07:19:16;;;;;;;;;16.25;14.75;;;;;15.22;67.03;101998.00;4941774;28;45273;-73
2021/06/24 07:21:42;;;;;;;;;16.75;13.50;;;;;15.19;66.99;101998.97;4953607;28;45364;-73
2021/06/24 07:24:08;;;;;;;;;15.00;14.00;;;;;15.15;67.13;101992.91;4941888;28;45373;-73
2021/06/24 07:26:33;;;;;;;;;13.25;12.25;;;;;15.10;66.89;101984.25;4945385;28;45493;-73
2021/06/24 07:28:59;;;;;;;;;14.25;10.00;;;;;15.10;67.21;101993.97;4947280;28;45270;-73
2021/06/24 07:31:24;;;;;;;;;12.75;12.75;;;;;15.12;66.87;101995.66;4952187;28;45212;-73
2021/06/24 07:33:49;;;;;;;;;12.50;11.50;;;;;15.11;67.08;101990.44;4961013;28;45380;-73
2021/06/24 07:36:15;;;;;;;;;16.50;12.50;;;;;15.06;67.33;101991.41;4949660;28;48261;-73
2021/06/24 07:38:41;;;;;;;;;15.00;13.50;;;;;15.10;67.16;101999.28;4951618;28;45360;-73
2021/06/24 07:41:06;;;;;;;;;17.50;14.75;;;;;15.11;66.74;102001.00;4960107;28;45439;-73
2021/06/24 07:43:31;;;;;;;;;14.00;11.75;;;;;15.06;66.93;101994.06;4960815;28;45443;-73
2021/06/24 07:45:57;;;;;;;;;18.50;14.25;;;;;15.10;66.74;102000.16;4953568;28;46881;-73
2021/06/24 07:48:22;;;;;;;;;18.00;15.50;;;;;15.07;66.87;101993.16;4949403;28;45378;-73
2021/06/24 07:50:48;;;;;;;;;12.25;11.50;;;;;15.07;67.29;101998.47;4952226;28;45427;-73
2021/06/24 07:53:14;;;;;;;;;19.00;13.50;;;;;15.09;66.76;101995.75;4952032;28;45456;-73
2021/06/24 07:55:39;;;;;;;;;23.50;19.25;;;;;15.16;67.00;102004.38;4951332;28;46371;-73
2021/06/24 07:58:07;;;;;;;;;16.25;14.50;;;;;15.19;66.97;102006.91;4958780;28;45213;-73
2021/06/24 08:00:34;;;;;;;;;18.25;15.25;;;;;15.23;66.90;102010.34;4948451;28;45240;-73
2021/06/24 08:03:00;;;;;;;;;12.50;11.25;;;;;15.26;67.06;102016.41;4959407;28;45377;-73
2021/06/24 08:05:26;;;;;;;;;16.25;13.00;;;;;15.30;66.80;102007.44;4960178;28;46397;-73
2021/06/24 08:07:51;;;;;;;;;15.50;14.25;;;;;15.36;66.80;102010.81;4950139;28;45461;-73
2021/06/24 08:10:19;;;;;;;;;14.75;14.50;;;;;15.35;66.40;102003.78;4941350;28;45469;-73
2021/06/24 08:12:46;;;;;;;;;15.00;15.00;;;;;15.36;67.07;102000.22;4941172;28;45342;-73
2021/06/24 08:15:12;;;;;;;;;16.50;16.50;;;;;15.46;66.50;102000.78;4953669;28;45310;-73
2021/06/24 08:17:38;;;;;;;;;17.25;14.50;;;;;15.51;66.46;101997.03;4952346;28;45670;-73
2021/06/24 08:20:05;;;;;;;;;18.25;13.50;;;;;15.57;65.86;102003.06;4954742;28;45412;-73
2021/06/24 08:22:31;;;;;;;;;15.25;13.75;;;;;15.60;65.93;102005.59;4948374;28;45396;-73
2021/06/24 08:24:57;;;;;;;;;15.50;14.00;;;;;15.61;66.09;102007.31;4953108;28;46652;-73
2021/06/24 08:27:23;;;;;;;;;14.50;12.75;;;;;15.63;66.22;102005.50;4957766;28;45437;-73
2021/06/24 08:29:48;;;;;;;;;15.50;14.75;;;;;15.65;66.43;102008.97;4943382;28;45538;-73
2021/06/24 08:32:14;;;;;;;;;18.00;15.00;;;;;15.66;66.08;102008.03;4949323;28;47216;-73
2021/06/24 08:34:39;;;;;;;;;17.50;14.75;;;;;15.71;66.06;102008.75;4955667;28;46545;-73
2021/06/24 08:37:04;;;;;;;;;16.00;16.00;;;;;15.75;65.72;102012.16;4963767;28;45225;-73
2021/06/24 08:39:30;;;;;;;;;13.00;11.75;;;;;15.76;66.07;102011.22;4958909;28;45571;-73
2021/06/24 08:41:55;;;;;;;;;18.00;12.25;;;;;15.79;65.71;102012.91;4955470;28;45391;-73
2021/06/24 08:44:21;;;;;;;;;16.50;15.25;;;;;15.84;65.87;102008.31;4951873;28;45366;-73
2021/06/24 08:46:51;;;;;;;;;12.75;11.25;;;;;15.87;66.37;102005.56;4962957;28;45378;-73
2021/06/24 08:49:22;;;;;;;;;18.50;17.50;;;;;15.93;65.19;102010.63;4946080;28;45458;-73
2021/06/24 08:51:47;;;;;;;;;17.50;13.50;;;;;15.91;65.28;102011.63;4944384;28;45291;-73
2021/06/24 08:54:12;;;;;;;;;14.75;13.00;;;;;15.89;65.64;102005.50;4957235;28;46999;-73
2021/06/24 08:56:40;;;;;;;;;17.75;17.00;;;;;15.92;65.45;102006.28;4961599;28;45456;-73
2021/06/24 08:59:05;;;;;;;;;16.75;16.00;;;;;15.97;65.46;102004.31;4962402;28;45412;-73
2021/06/24 09:01:57;;;;;;;;;23.75;20.75;;;;;16.03;65.48;102012.94;4962290;28;45264;-73
2021/06/24 09:04:25;;;;;;;;;16.75;16.25;;;;;16.04;65.14;102018.25;4961921;28;45994;-73
2021/06/24 09:06:52;;;;;;;;;16.25;15.50;;;;;16.05;65.22;102019.97;4962995;28;45350;-73
2021/06/24 09:09:29;;;;;;;;;21.50;18.00;;;;;16.10;65.07;102011.00;4952669;28;45481;-73
2021/06/24 09:12:09;;;;;;;;;20.00;17.50;;;;;16.12;64.52;102019.75;4950451;28;45607;-74
2021/06/24 09:14:42;;;;;;;;;17.50;12.75;;;;;16.13;64.82;102019.69;4949962;28;45515;-73
2021/06/24 09:17:09;;;;;;;;;17.25;14.00;;;;;16.13;64.76;102027.66;4962814;28;45299;-73
2021/06/24 09:19:39;;;;;;;;;14.00;13.00;;;;;16.12;64.33;102025.06;4960569;28;45250;-73
2021/06/24 09:22:09;;;;;;;;;16.75;13.75;;;;;16.10;64.58;102026.91;4956896;28;46469;-74
2021/06/24 09:24:46;;;;;;;;;18.50;13.25;;;;;16.13;64.70;102030.31;4958571;28;45529;-73
2021/06/24 09:27:18;;;;;;;;;14.50;13.50;;;;;16.16;64.67;102027.56;4953113;28;45741;-73
2021/06/24 09:29:48;;;;;;;;;19.00;16.75;;;;;16.22;64.59;102021.16;4958143;28;45246;-74
2021/06/24 09:32:31;;;;;;;;;19.25;14.00;;;;;16.27;64.21;102028.97;4957724;28;45698;-73
2021/06/24 09:34:57;;;;;;;;;18.50;13.25;;;;;16.26;63.95;102021.91;4954493;28;45468;-73
2021/06/24 09:37:22;;;;;;;;;17.75;15.50;;;;;16.28;64.43;102028.00;4944183;28;45812;-73
2021/06/24 09:39:48;;;;;;;;;20.50;16.25;;;;;16.26;64.31;102027.22;4951886;28;45456;-73
2021/06/24 09:42:14;;;;;;;;;17.25;16.50;;;;;16.25;63.86;102025.50;4950180;28;45496;-73
2021/06/24 09:44:43;;;;;;;;;19.25;17.00;;;;;16.28;63.68;102031.53;4952137;28;45606;-73
2021/06/24 09:47:17;;;;;;;;;13.75;12.25;;;;;16.26;63.70;102032.53;4951026;28;45211;-73
2021/06/24 09:49:54;;;;;;;;;12.00;11.00;;;;;16.27;63.58;102039.56;4960890;28;45238;-73
2021/06/24 09:52:19;;;;;;;;;16.75;13.00;;;;;16.24;64.15;102035.25;4962572;28;45285;-74
2021/06/24 09:54:47;;;;;;;;;10.75;10.25;;;;;16.27;64.33;102032.44;4959333;28;46363;-74
2021/06/24 09:57:30;;;;;;;;;19.25;17.50;;;;;16.36;63.95;102033.91;4947198;28;45302;-73
2021/06/24 09:59:56;;;;;;;;;12.25;12.00;;;;;16.40;64.03;102038.19;4949443;28;45434;-74
2021/06/24 10:02:21;;;;;;;;;13.25;12.00;;;;;16.44;63.66;102038.06;4952362;28;45392;-74
2021/06/24 10:04:48;;;;;;;;;15.75;10.75;;;;;16.49;63.04;102044.94;4951893;28;47217;-74
2021/06/24 10:07:16;;;;;;;;;12.75;11.50;;;;;16.52;63.53;102046.59;4949349;28;45317;-74
2021/06/24 10:09:44;;;;;;;;;17.00;15.50;;;;;16.58;63.11;102038.41;4943150;28;45357;-74
2021/06/24 10:12:19;;;;;;;;;10.00;8.00;;;;;16.62;62.87;102034.72;4944511;28;45696;-73
2021/06/24 10:14:46;;;;;;;;;18.00;15.00;;;;;16.67;63.08;102039.00;4949880;28;45275;-73
2021/06/24 10:17:11;;;;;;;;;15.75;14.75;;;;;16.69;62.90;102040.66;4956023;28;46258;-74
2021/06/24 10:19:44;;;;;;;;;14.00;13.50;;;;;16.73;63.35;102041.41;4952116;28;45388;-74
2021/06/24 10:22:18;;;;;;;;;14.50;12.00;;;;;16.77;62.82;102043.00;4959865;28;46575;-74
2021/06/24 10:25:00;;;;;;;;;16.25;12.50;;;;;16.80;62.09;102036.72;4960739;28;46033;-74
2021/06/24 10:27:35;;;;;;;;;19.75;16.75;;;;;16.84;62.80;102039.19;4961035;28;45619;-74
2021/06/24 10:30:15;;;;;;;;;13.75;11.75;;;;;16.90;62.19;102042.53;4961863;28;45534;-74
2021/06/24 10:32:43;;;;;;;;;13.00;12.25;;;;;16.93;61.67;102040.63;4953321;28;45393;-74
2021/06/24 10:35:29;;;;;;;;;13.75;12.50;;;;;16.94;61.95;102033.56;4948997;28;46498;-74
2021/06/24 10:37:55;;;;;;;;;14.25;12.50;;;;;16.95;61.95;102035.25;4961225;28;45201;-74
2021/06/24 10:40:21;;;;;;;;;12.75;12.50;;;;;16.96;61.68;102042.31;4959336;28;45609;-74
2021/06/24 10:42:52;;;;;;;;;12.50;10.75;;;;;16.94;61.07;102036.19;4953148;28;45481;-74
2021/06/24 10:45:18;;;;;;;;;16.25;12.75;;;;;16.97;61.18;102036.94;4942522;28;47174;-74
2021/06/24 10:47:43;;;;;;;;;13.50;11.00;;;;;17.01;61.49;102045.66;4947639;28;45476;-74
2021/06/24 10:50:27;;;;;;;;;13.75;12.25;;;;;17.08;61.71;102035.66;4955667;28;45384;-74
2021/06/24 10:52:53;;;;;;;;;14.00;12.50;;;;;17.16;60.57;102038.03;4951789;28;45455;-74
2021/06/24 10:55:31;;;;;;;;;12.00;11.00;;;;;17.16;59.66;102035.38;4942994;28;45387;-74
2021/06/24 10:57:57;;;;;;;;;12.00;12.00;;;;;17.15;58.99;102034.50;4942013;28;45521;-74
2021/06/24 11:00:54;;;;;;;;;11.75;11.50;;;;;17.22;60.10;102037.78;4942398;28;45255;-74
2021/06/24 11:03:25;;;;;;;;;14.75;12.50;;;;;17.26;57.90;102028.75;4950518;28;45432;-74
2021/06/24 11:05:53;;;;;;;;;12.25;11.50;;;;;17.30;59.96;102034.81;4961051;28;46321;-74
2021/06/24 11:08:29;;;;;;;;;12.50;12.50;;;;;17.35;58.31;102022.19;4958889;28;45930;-74